Hlavní strana
METAR-TAF:

METAR-TAF

Letiště :

Moskva-Šeremetěvo, Rusko

Letiště Moskva-Šeremeťjevo

zeměpisná šířka: 55-59N, zeměpisná délka: 037-30E, výška: 190 m

Aktuální stav počasí

Zpráva byla vytvořena před 25 minutami, v 09:00 UTC
vítr z různých směrů 2 kt
Teplota -7°C
Vlhkost vzduchu 93%
Tlak 1029 hPa
Viditelnost 10 km a více
Zataženo ve výšce 500 ft

METAR: UUEE 240900Z VRB01MPS 9999 OVC005 M07/M08 Q1029 R24L/420151 NOSIG

Čas: 12:25 (09:25 UTC)

Předpověď počasí

Zpráva byla vytvořena před 20 minutami, v 09:05 UTC
Předpověď platná od 24 v 09 UTC do 25 v 09 UTC
Západojihozápadní vítr 6 kt
Viditelnost: 6000 m
Zataženo ve výšce 700 ft
Dočasný
od 24 v 09 UTC do 24 v 12 UTC
Viditelnost: 1000 m
Zataženo ve výšce 300 ft
kouřmo
Změna
od 24 v 12 UTC do 24 v 14 UTC
Jižní vítr 10 kt

TAF: UUEE 240905Z 2409/2509 24003MPS 6000 OVC007 TXM07/2412Z TNM11/2500Z TEMPO 2409/2412 1000 BR OVC003 BECMG 2412/2414 18005MPS

Stav a předpovědi počasí z více než 4 000 letišť (zprávy METAR a TAF).

Červené a žluté tečky na mapě představují dostupné meteorologické stanice.

Když kurzor umístíte na tečku, zobrazí se název stanice.

Pak kliknutím zobrazíte stav a předpověď počasí.

Chcete-li změnit mapu, kliknutím na zelené tlačítko se znaménkem +mapu přiblížíte, kliknutím na zelené tlačítko se znaménkem – mapu oddálíte a kliknutím na zelené šipky přejdete na sousední mapy.


METAR-TAF: